createdAt,value
2019-02-23T00:00:02.317Z,35.30
2019-02-23T00:01:02.303Z,35.40
2019-02-23T00:02:02.292Z,32.30
2019-02-23T00:03:02.279Z,38.50
2019-02-23T00:04:02.271Z,36.80
2019-02-23T00:05:02.260Z,36.90
2019-02-23T00:06:02.244Z,39.00
2019-02-23T00:07:02.238Z,36.10
2019-02-23T00:08:02.222Z,33.00
2019-02-23T00:09:02.204Z,47.20
2019-02-23T00:10:02.192Z,38.10
2019-02-23T00:11:02.183Z,39.30
2019-02-23T00:12:04.560Z,34.50
2019-02-23T00:13:02.157Z,34.70
2019-02-23T00:14:02.145Z,33.90
2019-02-23T00:15:02.136Z,38.00
2019-02-23T00:16:02.129Z,39.30
2019-02-23T00:17:02.110Z,34.30
2019-02-23T00:18:02.096Z,37.30
2019-02-23T00:19:02.093Z,35.80
2019-02-23T00:20:02.076Z,34.60
2019-02-23T00:21:02.063Z,39.20
2019-02-23T00:22:02.057Z,36.90
2019-02-23T00:23:02.045Z,34.70
2019-02-23T00:24:02.027Z,34.50
2019-02-23T00:25:02.015Z,36.80
2019-02-23T00:26:02.001Z,36.10
2019-02-23T00:27:01.993Z,35.10
2019-02-23T00:28:01.982Z,36.60
2019-02-23T00:29:01.967Z,34.60
2019-02-23T00:30:01.975Z,39.50
2019-02-23T00:31:01.940Z,35.70
2019-02-23T00:32:01.933Z,34.20
2019-02-23T00:33:01.916Z,34.90
2019-02-23T00:34:01.909Z,39.40
2019-02-23T00:35:01.896Z,37.30
2019-02-23T00:36:01.886Z,36.60
2019-02-23T00:37:01.874Z,40.70
2019-02-23T00:38:01.873Z,36.60
2019-02-23T00:39:01.845Z,42.90
2019-02-23T00:40:01.834Z,37.70
2019-02-23T00:41:01.850Z,57.10
2019-02-23T00:42:01.811Z,36.50
2019-02-23T00:43:01.799Z,37.30
2019-02-23T00:44:01.791Z,39.00
2019-02-23T00:45:01.791Z,36.60
2019-02-23T00:46:01.763Z,38.50
2019-02-23T00:47:01.749Z,37.20
2019-02-23T00:48:01.739Z,39.00
2019-02-23T00:49:01.727Z,37.20
2019-02-23T00:50:01.713Z,38.00
2019-02-23T00:51:01.702Z,43.50
2019-02-23T00:52:01.693Z,41.70
2019-02-23T00:53:01.697Z,37.70
2019-02-23T00:54:01.664Z,37.80
2019-02-23T00:55:01.681Z,38.00
2019-02-23T00:56:01.646Z,40.80
2019-02-23T00:57:01.631Z,37.80
2019-02-23T00:58:01.618Z,38.90
2019-02-23T00:59:02.232Z,38.70
2019-02-23T01:00:01.600Z,40.30
2019-02-23T01:01:01.582Z,35.90
2019-02-23T01:02:01.569Z,36.60
2019-02-23T01:03:01.559Z,35.90
2019-02-23T01:04:01.544Z,34.60
2019-02-23T01:05:01.530Z,36.80
2019-02-23T01:06:01.519Z,34.20
2019-02-23T01:07:01.512Z,35.50
2019-02-23T01:08:01.497Z,39.20
2019-02-23T01:09:01.486Z,40.70
2019-02-23T01:10:01.473Z,37.90
2019-02-23T01:11:01.458Z,36.30
2019-02-23T01:12:01.447Z,34.40
2019-02-23T01:13:01.443Z,37.60
2019-02-23T01:14:01.424Z,35.90
2019-02-23T01:15:01.414Z,32.20
2019-02-23T01:16:01.401Z,33.10
2019-02-23T01:17:01.392Z,34.20
2019-02-23T01:18:01.377Z,32.80
2019-02-23T01:19:01.365Z,34.30
2019-02-23T01:20:01.356Z,33.10
2019-02-23T01:21:01.343Z,37.80
2019-02-23T01:22:01.333Z,32.60
2019-02-23T01:23:01.321Z,34.60
2019-02-23T01:24:01.310Z,35.10
2019-02-23T01:25:01.292Z,35.90
2019-02-23T01:26:01.285Z,34.10
2019-02-23T01:27:01.272Z,39.40
2019-02-23T01:28:01.259Z,34.50
2019-02-23T01:29:01.246Z,34.20
2019-02-23T01:30:01.238Z,34.10
2019-02-23T01:31:01.223Z,34.60
2019-02-23T01:32:01.211Z,34.70
2019-02-23T01:33:01.200Z,36.30
2019-02-23T01:34:01.194Z,35.90
2019-02-23T01:35:01.173Z,36.60
2019-02-23T01:36:01.164Z,36.20
2019-02-23T01:37:01.155Z,37.50
2019-02-23T01:38:01.138Z,33.80
2019-02-23T01:39:01.126Z,41.80
2019-02-23T01:40:01.113Z,37.40
2019-02-23T01:41:01.098Z,37.40
2019-02-23T01:42:01.088Z,38.00
2019-02-23T01:43:01.084Z,35.70
2019-02-23T01:44:01.067Z,36.20
2019-02-23T01:45:01.051Z,34.70
2019-02-23T01:46:01.040Z,36.30
2019-02-23T01:47:01.028Z,36.80
2019-02-23T01:48:01.020Z,34.80
2019-02-23T01:49:01.004Z,40.40
2019-02-23T01:50:00.995Z,34.00
2019-02-23T01:51:00.979Z,35.50
2019-02-23T01:52:00.968Z,35.20
2019-02-23T01:53:00.954Z,33.70
2019-02-23T01:54:00.943Z,36.40
2019-02-23T01:55:00.932Z,36.00
2019-02-23T01:56:00.930Z,35.10
2019-02-23T01:57:00.908Z,34.80
2019-02-23T01:58:00.895Z,37.30
2019-02-23T01:59:00.890Z,35.70
2019-02-23T02:00:00.987Z,37.80
2019-02-23T02:01:00.859Z,34.00
2019-02-23T02:02:00.844Z,34.30
2019-02-23T02:03:00.835Z,32.50
2019-02-23T02:04:00.821Z,37.40
2019-02-23T02:05:00.830Z,34.10
2019-02-23T02:06:00.798Z,36.50
2019-02-23T02:07:00.790Z,34.90
2019-02-23T02:08:00.773Z,38.80
2019-02-23T02:09:00.758Z,36.40
2019-02-23T02:10:00.750Z,36.00
2019-02-23T02:11:00.737Z,35.80
2019-02-23T02:12:00.724Z,37.00
2019-02-23T02:13:00.715Z,37.10
2019-02-23T02:14:00.700Z,35.20
2019-02-23T02:15:00.689Z,35.90
2019-02-23T02:16:00.674Z,36.40
2019-02-23T02:17:00.662Z,36.40
2019-02-23T02:18:00.649Z,37.90
2019-02-23T02:19:00.637Z,35.60
2019-02-23T02:20:10.567Z,36.40
2019-02-23T02:21:00.618Z,37.60
2019-02-23T02:22:00.601Z,33.30
2019-02-23T02:23:00.590Z,37.30
2019-02-23T02:24:00.578Z,34.00
2019-02-23T02:25:00.560Z,33.70
2019-02-23T02:26:00.551Z,37.20
2019-02-23T02:27:00.537Z,34.70
2019-02-23T02:28:00.524Z,37.10
2019-02-23T02:29:00.521Z,37.90
2019-02-23T02:30:00.520Z,38.80
2019-02-23T02:31:01.393Z,37.60
2019-02-23T02:32:00.475Z,37.10
2019-02-23T02:33:00.461Z,34.40
2019-02-23T02:34:00.452Z,34.90
2019-02-23T02:35:00.438Z,33.70
2019-02-23T02:36:00.426Z,34.30
2019-02-23T02:37:00.415Z,35.30
2019-02-23T02:38:00.402Z,38.70
2019-02-23T02:39:00.390Z,37.10
2019-02-23T02:40:00.377Z,35.50
2019-02-23T02:41:00.367Z,37.20
2019-02-23T02:42:00.353Z,37.50
2019-02-23T02:43:00.354Z,34.50
2019-02-23T02:44:00.327Z,34.90
2019-02-23T02:45:00.354Z,40.00
2019-02-23T02:46:00.306Z,35.50
2019-02-23T02:47:00.292Z,35.30
2019-02-23T02:48:00.279Z,36.10
2019-02-23T02:49:00.264Z,35.10
2019-02-23T02:50:00.335Z,36.00
2019-02-23T02:51:00.244Z,33.40
2019-02-23T02:52:00.230Z,37.20
2019-02-23T02:53:00.220Z,32.10
2019-02-23T02:54:00.207Z,32.40
2019-02-23T02:55:00.327Z,32.20
2019-02-23T02:56:00.179Z,30.60
2019-02-23T02:57:00.169Z,31.80
2019-02-23T02:58:00.156Z,31.40
2019-02-23T02:59:00.146Z,35.70
2019-02-23T03:00:00.475Z,34.70
2019-02-23T03:01:00.119Z,32.80
2019-02-23T03:02:00.109Z,33.00
2019-02-23T03:03:00.101Z,32.80
2019-02-23T03:04:00.086Z,37.60
2019-02-23T03:05:00.108Z,32.60
2019-02-23T03:06:00.061Z,31.40
2019-02-23T03:07:00.052Z,32.00
2019-02-23T03:08:00.037Z,28.40
2019-02-23T03:09:00.023Z,30.50
2019-02-23T03:10:00.015Z,32.10
2019-02-23T03:11:00.005Z,31.80
2019-02-23T03:11:59.989Z,28.80
2019-02-23T03:12:59.975Z,29.80
2019-02-23T03:13:59.966Z,32.00
2019-02-23T03:14:59.954Z,32.60
2019-02-23T03:15:59.943Z,31.80
2019-02-23T03:16:59.926Z,34.00
2019-02-23T03:17:59.915Z,30.10
2019-02-23T03:18:59.905Z,31.80
2019-02-23T03:19:59.895Z,31.80
2019-02-23T03:20:59.881Z,29.40
2019-02-23T03:21:59.869Z,31.00
2019-02-23T03:22:59.856Z,32.40
2019-02-23T03:23:59.859Z,30.20
2019-02-23T03:24:59.833Z,31.00
2019-02-23T03:25:59.822Z,30.70
2019-02-23T03:26:59.810Z,31.20
2019-02-23T03:27:59.807Z,33.60
2019-02-23T03:28:59.785Z,33.20
2019-02-23T03:29:59.775Z,32.60
2019-02-23T03:30:59.763Z,35.20
2019-02-23T03:32:00.153Z,29.20
2019-02-23T03:32:59.740Z,32.30
2019-02-23T03:33:59.822Z,33.00
2019-02-23T03:34:59.719Z,32.40
2019-02-23T03:35:59.704Z,32.40
2019-02-23T03:36:59.689Z,30.80
2019-02-23T03:37:59.678Z,30.40
2019-02-23T03:38:59.667Z,33.80
2019-02-23T03:39:59.658Z,34.10
2019-02-23T03:40:59.646Z,34.80
2019-02-23T03:41:59.632Z,34.30
2019-02-23T03:42:59.619Z,33.90
2019-02-23T03:43:59.607Z,35.60
2019-02-23T03:44:59.595Z,32.30
2019-02-23T03:45:59.596Z,32.80
2019-02-23T03:46:59.573Z,32.30
2019-02-23T03:47:59.559Z,31.10
2019-02-23T03:48:59.546Z,32.00
2019-02-23T03:49:59.535Z,29.90
2019-02-23T03:50:59.523Z,34.10
2019-02-23T03:51:59.522Z,35.30
2019-02-23T03:52:59.500Z,29.80
2019-02-23T03:53:59.486Z,29.40
2019-02-23T03:54:59.474Z,29.70
2019-02-23T03:55:59.464Z,33.40
2019-02-23T03:56:59.451Z,30.40
2019-02-23T03:57:59.439Z,32.80
2019-02-23T03:58:59.429Z,29.00
2019-02-23T03:59:59.414Z,30.40
2019-02-23T04:00:59.404Z,28.10
2019-02-23T04:01:59.391Z,30.20
2019-02-23T04:02:59.380Z,31.40
2019-02-23T04:03:59.367Z,31.20
2019-02-23T04:04:59.355Z,33.90
2019-02-23T04:05:59.345Z,32.00
2019-02-23T04:06:59.333Z,34.60
2019-02-23T04:07:59.319Z,35.70
2019-02-23T04:08:59.331Z,33.30
2019-02-23T04:09:59.294Z,31.30
2019-02-23T04:10:59.297Z,35.10
2019-02-23T04:11:59.269Z,38.90
2019-02-23T04:12:59.260Z,34.60
2019-02-23T04:13:59.253Z,34.90
2019-02-23T04:14:59.236Z,33.90
2019-02-23T04:15:59.222Z,32.00
2019-02-23T04:16:59.211Z,32.90
2019-02-23T04:17:59.200Z,33.20
2019-02-23T04:18:59.185Z,33.80
2019-02-23T04:19:59.173Z,34.10
2019-02-23T04:21:02.034Z,35.00
2019-02-23T04:21:59.149Z,31.60
2019-02-23T04:22:59.138Z,34.40
2019-02-23T04:23:59.126Z,34.20
2019-02-23T04:24:59.116Z,33.00
2019-02-23T04:25:59.104Z,35.20
2019-02-23T04:26:59.090Z,31.50
2019-02-23T04:27:59.079Z,31.30
2019-02-23T04:28:59.064Z,31.90
2019-02-23T04:29:59.055Z,34.30
2019-02-23T04:30:59.041Z,34.80
2019-02-23T04:31:59.030Z,36.40
2019-02-23T04:32:59.015Z,33.50
2019-02-23T04:33:59.008Z,35.00
2019-02-23T04:34:58.993Z,33.70
2019-02-23T04:35:58.986Z,32.00
2019-02-23T04:36:58.980Z,33.50
2019-02-23T04:37:58.955Z,33.90
2019-02-23T04:38:58.948Z,31.20
2019-02-23T04:39:58.932Z,30.70
2019-02-23T04:40:58.921Z,31.40
2019-02-23T04:41:58.911Z,34.80
2019-02-23T04:42:58.900Z,34.00
2019-02-23T04:43:58.883Z,35.10
2019-02-23T04:44:58.875Z,34.20
2019-02-23T04:45:58.855Z,34.90
2019-02-23T04:46:58.847Z,40.80
2019-02-23T04:47:58.838Z,33.50
2019-02-23T04:48:58.823Z,35.20
2019-02-23T04:49:58.813Z,37.40
2019-02-23T04:50:58.801Z,37.70
2019-02-23T04:51:58.788Z,38.20
2019-02-23T04:52:58.783Z,39.40
2019-02-23T04:54:00.729Z,43.80
2019-02-23T04:54:58.934Z,39.70
2019-02-23T04:55:58.791Z,40.70
2019-02-23T04:56:58.729Z,40.70
2019-02-23T04:57:58.717Z,38.50
2019-02-23T04:58:58.705Z,42.80
2019-02-23T04:59:58.692Z,41.50
2019-02-23T05:00:58.681Z,37.60
2019-02-23T05:01:58.664Z,44.20
2019-02-23T05:02:58.655Z,45.60
2019-02-23T05:03:59.327Z,39.40
2019-02-23T05:04:58.632Z,39.00
2019-02-23T05:05:58.623Z,35.50
2019-02-23T05:06:58.607Z,36.00
2019-02-23T05:07:58.599Z,35.10
2019-02-23T05:08:58.583Z,33.60
2019-02-23T05:09:58.569Z,34.50
2019-02-23T05:10:58.558Z,36.40
2019-02-23T05:11:58.549Z,32.30
2019-02-23T05:12:58.531Z,33.80
2019-02-23T05:13:58.526Z,32.50
2019-02-23T05:14:58.508Z,35.20
2019-02-23T05:15:58.506Z,34.60
2019-02-23T05:16:58.484Z,34.20
2019-02-23T05:17:58.471Z,33.20
2019-02-23T05:18:58.460Z,36.50
2019-02-23T05:19:58.449Z,35.20
2019-02-23T05:20:58.436Z,33.10
2019-02-23T05:21:58.424Z,37.00
2019-02-23T05:22:58.412Z,38.10
2019-02-23T05:23:58.400Z,43.50
2019-02-23T05:24:58.387Z,40.90
2019-02-23T05:25:58.373Z,38.90
2019-02-23T05:26:58.364Z,37.10
2019-02-23T05:27:58.350Z,38.20
2019-02-23T05:28:58.338Z,37.10
2019-02-23T05:29:58.326Z,39.40
2019-02-23T05:30:58.310Z,39.70
2019-02-23T05:31:58.302Z,40.10
2019-02-23T05:32:58.287Z,40.10
2019-02-23T05:33:58.279Z,41.70
2019-02-23T05:34:58.262Z,38.00
2019-02-23T05:35:58.252Z,40.90
2019-02-23T05:36:58.245Z,43.70
2019-02-23T05:37:58.226Z,40.30
2019-02-23T05:38:58.213Z,42.10
2019-02-23T05:39:58.200Z,42.50
2019-02-23T05:40:58.189Z,41.40
2019-02-23T05:41:58.175Z,39.80
2019-02-23T05:43:01.261Z,40.40
2019-02-23T05:43:58.154Z,40.70
2019-02-23T05:44:58.141Z,43.30
2019-02-23T05:45:58.127Z,42.30
2019-02-23T05:46:58.228Z,41.40
2019-02-23T05:47:58.100Z,36.30
2019-02-23T05:48:58.085Z,40.00
2019-02-23T05:49:58.082Z,40.10
2019-02-23T05:50:58.072Z,45.80
2019-02-23T05:51:58.052Z,38.70
2019-02-23T05:52:58.042Z,43.10
2019-02-23T05:53:58.027Z,39.80
2019-02-23T05:54:58.012Z,40.40
2019-02-23T05:55:57.999Z,39.30
2019-02-23T05:56:57.987Z,39.50
2019-02-23T05:57:57.975Z,42.10
2019-02-23T05:58:57.961Z,39.10
2019-02-23T05:59:57.950Z,36.40
2019-02-23T06:00:57.938Z,38.10
2019-02-23T06:01:57.924Z,40.60
2019-02-23T06:02:57.913Z,44.30
2019-02-23T06:03:57.898Z,38.50
2019-02-23T06:04:58.081Z,42.10
2019-02-23T06:05:57.871Z,40.40
2019-02-23T06:06:57.859Z,42.70
2019-02-23T06:07:57.851Z,38.80
2019-02-23T06:08:57.836Z,37.90
2019-02-23T06:09:57.825Z,41.50
2019-02-23T06:10:57.812Z,42.70
2019-02-23T06:11:57.800Z,40.60
2019-02-23T06:12:57.785Z,37.40
2019-02-23T06:13:57.773Z,38.10
2019-02-23T06:14:57.760Z,37.00
2019-02-23T06:15:57.750Z,35.70
2019-02-23T06:16:57.733Z,37.00
2019-02-23T06:17:57.723Z,37.70
2019-02-23T06:18:57.710Z,37.40
2019-02-23T06:19:57.700Z,33.60
2019-02-23T06:20:57.683Z,37.70
2019-02-23T06:21:57.672Z,35.10
2019-02-23T06:22:57.663Z,37.60
2019-02-23T06:23:57.662Z,32.80
2019-02-23T06:24:57.632Z,35.10
2019-02-23T06:25:57.634Z,37.00
2019-02-23T06:26:57.613Z,36.20
2019-02-23T06:27:57.597Z,35.30
2019-02-23T06:28:57.583Z,37.10
2019-02-23T06:29:57.570Z,33.50
2019-02-23T06:30:57.561Z,36.30
2019-02-23T06:31:57.549Z,37.00
2019-02-23T06:32:57.562Z,35.10
2019-02-23T06:33:57.526Z,41.50
2019-02-23T06:34:57.511Z,37.30
2019-02-23T06:35:58.483Z,39.10
2019-02-23T06:36:57.486Z,40.00
2019-02-23T06:37:57.478Z,37.00
2019-02-23T06:38:57.476Z,39.20
2019-02-23T06:39:57.449Z,38.40
2019-02-23T06:40:57.436Z,41.10
2019-02-23T06:41:57.425Z,38.80
2019-02-23T06:42:57.991Z,33.60
2019-02-23T06:43:57.400Z,38.70
2019-02-23T06:44:57.389Z,44.10
2019-02-23T06:45:57.380Z,43.60
2019-02-23T06:46:57.361Z,40.20
2019-02-23T06:47:57.351Z,39.00
2019-02-23T06:48:57.336Z,37.50
2019-02-23T06:49:57.322Z,39.60
2019-02-23T06:50:57.310Z,40.80
2019-02-23T06:52:04.361Z,40.90
2019-02-23T06:52:57.283Z,39.90
2019-02-23T06:53:57.271Z,41.00
2019-02-23T06:54:58.497Z,38.60
2019-02-23T06:55:57.248Z,39.30
2019-02-23T06:56:57.239Z,42.00
2019-02-23T06:57:57.227Z,42.20
2019-02-23T06:58:57.208Z,39.30
2019-02-23T06:59:57.194Z,41.60
2019-02-23T07:00:57.179Z,40.50
2019-02-23T07:01:57.168Z,44.70
2019-02-23T07:02:57.154Z,42.10
2019-02-23T07:03:57.145Z,39.30
2019-02-23T07:04:57.130Z,40.90
2019-02-23T07:05:57.116Z,41.00
2019-02-23T07:06:57.110Z,40.10
2019-02-23T07:07:57.093Z,42.10
2019-02-23T07:08:57.077Z,40.50
2019-02-23T07:09:57.064Z,41.20
2019-02-23T07:10:57.055Z,39.10
2019-02-23T07:11:57.038Z,43.20
2019-02-23T07:12:57.021Z,41.50
2019-02-23T07:13:57.008Z,39.20
2019-02-23T07:14:57.001Z,39.70
2019-02-23T07:15:56.998Z,40.70
2019-02-23T07:16:56.973Z,38.50
2019-02-23T07:17:56.958Z,40.30
2019-02-23T07:18:56.967Z,37.80
2019-02-23T07:19:56.935Z,42.50
2019-02-23T07:20:56.919Z,41.30
2019-02-23T07:21:56.906Z,39.80
2019-02-23T07:22:56.896Z,40.20
2019-02-23T07:23:56.882Z,40.50
2019-02-23T07:24:56.887Z,41.60
2019-02-23T07:25:56.857Z,41.90
2019-02-23T07:26:56.844Z,42.20
2019-02-23T07:27:56.834Z,42.60
2019-02-23T07:28:56.820Z,39.90
2019-02-23T07:29:56.807Z,42.80
2019-02-23T07:30:56.792Z,41.70
2019-02-23T07:31:56.782Z,39.30
2019-02-23T07:32:56.764Z,43.60
2019-02-23T07:33:56.753Z,43.50
2019-02-23T07:34:56.740Z,44.40
2019-02-23T07:35:56.731Z,41.60
2019-02-23T07:36:58.298Z,45.00
2019-02-23T07:37:56.903Z,41.30
2019-02-23T07:38:56.866Z,42.00
2019-02-23T07:39:56.786Z,41.80
2019-02-23T07:40:56.902Z,43.60
2019-02-23T07:41:56.780Z,41.50
2019-02-23T07:42:56.853Z,45.80
2019-02-23T07:43:56.626Z,41.70
2019-02-23T07:44:56.611Z,41.60
2019-02-23T07:45:56.599Z,46.00
2019-02-23T07:46:56.587Z,48.90
2019-02-23T07:47:56.578Z,47.20
2019-02-23T07:48:56.560Z,41.70
2019-02-23T07:49:56.548Z,41.70
2019-02-23T07:50:56.539Z,42.70
2019-02-23T07:51:56.530Z,43.60
2019-02-23T07:52:56.509Z,41.10
2019-02-23T07:53:56.492Z,41.30
2019-02-23T07:54:56.485Z,45.90
2019-02-23T07:55:56.477Z,38.50
2019-02-23T07:56:56.462Z,42.30
2019-02-23T07:57:56.455Z,44.10
2019-02-23T07:58:56.436Z,41.40
2019-02-23T07:59:56.420Z,41.60
2019-02-23T08:00:56.424Z,42.40
2019-02-23T08:01:56.392Z,40.00
2019-02-23T08:02:56.391Z,41.40
2019-02-23T08:03:56.371Z,43.30
2019-02-23T08:04:57.291Z,43.20
2019-02-23T08:05:56.884Z,44.90
2019-02-23T08:06:56.331Z,42.10
2019-02-23T08:07:56.320Z,43.10
2019-02-23T08:08:56.304Z,42.20
2019-02-23T08:09:56.289Z,37.60
2019-02-23T08:10:56.281Z,41.10
2019-02-23T08:11:56.272Z,42.00
2019-02-23T08:12:56.253Z,37.20
2019-02-23T08:13:56.243Z,40.20
2019-02-23T08:14:56.256Z,38.70
2019-02-23T08:15:56.402Z,38.40
2019-02-23T08:16:56.270Z,37.60
2019-02-23T08:17:56.416Z,37.60
2019-02-23T08:18:56.378Z,42.60
2019-02-23T08:19:56.395Z,38.90
2019-02-23T08:20:56.161Z,39.80
2019-02-23T08:21:56.147Z,45.20
2019-02-23T08:22:56.132Z,41.90
2019-02-23T08:23:56.118Z,38.10
2019-02-23T08:24:56.101Z,40.90
2019-02-23T08:25:56.100Z,38.80
2019-02-23T08:26:56.083Z,39.60
2019-02-23T08:27:56.071Z,39.20
2019-02-23T08:28:56.057Z,40.60
2019-02-23T08:29:56.045Z,37.50
2019-02-23T08:30:56.030Z,39.40
2019-02-23T08:31:56.018Z,35.80
2019-02-23T08:32:56.008Z,37.70
2019-02-23T08:33:55.994Z,36.80
2019-02-23T08:34:55.983Z,35.10
2019-02-23T08:35:55.971Z,37.00
2019-02-23T08:36:55.954Z,40.90
2019-02-23T08:37:55.972Z,37.70
2019-02-23T08:38:55.937Z,33.30
2019-02-23T08:39:55.926Z,36.40
2019-02-23T08:40:55.916Z,37.20
2019-02-23T08:41:55.897Z,34.00
2019-02-23T08:42:55.885Z,33.80
2019-02-23T08:43:55.873Z,33.90
2019-02-23T08:44:55.860Z,36.80
2019-02-23T08:45:55.848Z,35.90
2019-02-23T08:46:55.837Z,35.70
2019-02-23T08:47:56.494Z,35.00
2019-02-23T08:48:55.811Z,36.70
2019-02-23T08:49:55.801Z,34.20
2019-02-23T08:50:55.794Z,34.80
2019-02-23T08:51:55.777Z,33.70
2019-02-23T08:52:55.764Z,33.60
2019-02-23T08:53:55.751Z,34.50
2019-02-23T08:54:55.741Z,31.30
2019-02-23T08:55:55.730Z,34.90
2019-02-23T08:56:55.717Z,39.20
2019-02-23T08:57:55.706Z,38.30
2019-02-23T08:58:55.693Z,37.70
2019-02-23T08:59:55.685Z,35.80
2019-02-23T09:00:55.670Z,37.20
2019-02-23T09:01:55.664Z,34.60
2019-02-23T09:02:55.649Z,33.90
2019-02-23T09:03:55.636Z,33.80
2019-02-23T09:04:55.620Z,36.10
2019-02-23T09:05:55.615Z,44.40
2019-02-23T09:06:55.601Z,56.20
2019-02-23T09:07:55.587Z,51.70
2019-02-23T09:08:56.357Z,45.50
2019-02-23T09:09:55.567Z,41.30
2019-02-23T09:10:55.559Z,38.70
2019-02-23T09:11:55.547Z,35.70
2019-02-23T09:12:55.536Z,35.70
2019-02-23T09:13:55.521Z,30.20
2019-02-23T09:14:55.510Z,30.60
2019-02-23T09:15:55.501Z,35.90
2019-02-23T09:16:55.488Z,35.10
2019-02-23T09:17:55.477Z,32.50
2019-02-23T09:18:55.469Z,27.60
2019-02-23T09:19:55.453Z,29.20
2019-02-23T09:20:55.444Z,26.60
2019-02-23T09:21:55.430Z,23.90
2019-02-23T09:23:00.205Z,26.00
2019-02-23T09:23:55.408Z,27.50
2019-02-23T09:24:55.399Z,23.50
2019-02-23T09:25:57.762Z,25.60
2019-02-23T09:26:55.376Z,22.90
2019-02-23T09:27:55.371Z,20.80
2019-02-23T09:28:55.353Z,21.00
2019-02-23T09:29:55.351Z,25.70
2019-02-23T09:30:55.332Z,22.30
2019-02-23T09:31:55.325Z,23.80
2019-02-23T09:32:55.307Z,23.20
2019-02-23T09:33:55.302Z,25.70
2019-02-23T09:34:55.290Z,28.30
2019-02-23T09:35:55.278Z,22.90
2019-02-23T09:36:55.263Z,31.50
2019-02-23T09:37:55.258Z,24.10
2019-02-23T09:38:55.249Z,25.30
2019-02-23T09:39:55.235Z,25.20
2019-02-23T09:40:55.224Z,23.40
2019-02-23T09:41:55.212Z,25.00
2019-02-23T09:42:55.203Z,41.30
2019-02-23T09:43:55.194Z,29.10
2019-02-23T09:44:55.179Z,37.90
2019-02-23T09:45:55.171Z,29.20
2019-02-23T09:46:55.163Z,24.50
2019-02-23T09:47:55.149Z,23.80
2019-02-23T09:48:56.373Z,22.30
2019-02-23T09:49:55.127Z,24.40
2019-02-23T09:50:55.119Z,26.50
2019-02-23T09:51:55.109Z,24.20
2019-02-23T09:52:55.096Z,23.10
2019-02-23T09:53:55.082Z,21.10
2019-02-23T09:54:55.073Z,22.70
2019-02-23T09:55:55.072Z,19.60
2019-02-23T09:56:55.054Z,24.90
2019-02-23T09:57:55.053Z,21.50
2019-02-23T09:58:55.034Z,29.80
2019-02-23T09:59:55.022Z,23.00
2019-02-23T10:00:55.014Z,18.80
2019-02-23T10:01:55.027Z,20.50
2019-02-23T10:02:54.994Z,16.70
2019-02-23T10:03:54.984Z,15.40
2019-02-23T10:04:54.973Z,16.00
2019-02-23T10:05:54.962Z,17.80
2019-02-23T10:06:54.991Z,14.40
2019-02-23T10:07:54.942Z,17.00
2019-02-23T10:08:54.929Z,21.40
2019-02-23T10:09:55.138Z,16.30
2019-02-23T10:10:54.909Z,13.20
2019-02-23T10:11:54.899Z,13.90
2019-02-23T10:12:54.888Z,14.00
2019-02-23T10:13:54.884Z,15.20
2019-02-23T10:14:54.870Z,14.90
2019-02-23T10:15:54.862Z,17.10
2019-02-23T10:16:54.850Z,14.10
2019-02-23T10:17:54.840Z,11.70
2019-02-23T10:18:54.842Z,17.40
2019-02-23T10:19:54.849Z,15.20
2019-02-23T10:20:54.808Z,15.70
2019-02-23T10:21:54.833Z,15.60
2019-02-23T10:22:54.784Z,15.80
2019-02-23T10:23:54.775Z,13.80
2019-02-23T10:24:54.769Z,18.40
2019-02-23T10:25:54.765Z,16.10
2019-02-23T10:26:54.752Z,13.90
2019-02-23T10:27:54.738Z,14.10
2019-02-23T10:28:54.728Z,20.30
2019-02-23T10:29:54.716Z,16.30
2019-02-23T10:30:54.712Z,15.20
2019-02-23T10:31:56.221Z,16.70
2019-02-23T10:32:54.690Z,15.90
2019-02-23T10:33:54.678Z,17.00
2019-02-23T10:34:54.665Z,19.10
2019-02-23T10:35:54.663Z,13.40
2019-02-23T10:36:54.670Z,15.00
2019-02-23T10:37:54.639Z,15.10
2019-02-23T10:38:54.631Z,15.80
2019-02-23T10:39:54.624Z,17.90
2019-02-23T10:40:55.547Z,15.40
2019-02-23T10:41:54.604Z,12.90
2019-02-23T10:42:54.593Z,14.90
2019-02-23T10:43:54.586Z,13.30
2019-02-23T10:44:54.565Z,13.50
2019-02-23T10:45:54.572Z,16.70
2019-02-23T10:46:54.824Z,15.60
2019-02-23T10:47:54.543Z,14.10
2019-02-23T10:48:54.532Z,15.10
2019-02-23T10:49:54.522Z,16.20
2019-02-23T10:50:54.534Z,14.00
2019-02-23T10:51:54.504Z,19.40
2019-02-23T10:52:54.492Z,13.20
2019-02-23T10:53:54.485Z,14.00
2019-02-23T10:54:54.472Z,17.10
2019-02-23T10:55:54.464Z,17.60
2019-02-23T10:56:54.586Z,16.10
2019-02-23T10:57:54.445Z,14.10
2019-02-23T10:58:54.437Z,14.20
2019-02-23T10:59:54.424Z,16.80
2019-02-23T11:00:54.413Z,14.20
2019-02-23T11:01:54.405Z,14.70
2019-02-23T11:02:54.402Z,15.60
2019-02-23T11:03:54.389Z,15.70
2019-02-23T11:04:54.386Z,13.70
2019-02-23T11:05:54.366Z,15.70
2019-02-23T11:06:54.361Z,15.60
2019-02-23T11:07:54.385Z,14.90
2019-02-23T11:08:54.338Z,13.40
2019-02-23T11:09:54.337Z,16.90
2019-02-23T11:10:54.321Z,14.10
2019-02-23T11:11:54.414Z,13.30
2019-02-23T11:12:54.304Z,18.00
2019-02-23T11:13:54.328Z,16.00
2019-02-23T11:14:54.292Z,15.40
2019-02-23T11:15:54.304Z,17.10
2019-02-23T11:16:54.264Z,12.90
2019-02-23T11:17:54.334Z,11.00
2019-02-23T11:18:54.249Z,12.40
2019-02-23T11:19:54.286Z,13.30
2019-02-23T11:20:54.281Z,15.40
2019-02-23T11:21:54.218Z,17.10
2019-02-23T11:22:54.211Z,15.10
2019-02-23T11:23:54.203Z,13.90
2019-02-23T11:24:54.194Z,11.50
2019-02-23T11:25:54.186Z,11.40
2019-02-23T11:26:54.177Z,13.70
2019-02-23T11:27:54.167Z,16.00
2019-02-23T11:28:54.161Z,12.30
2019-02-23T11:29:54.148Z,16.90
2019-02-23T11:30:54.137Z,11.80
2019-02-23T11:31:54.150Z,17.10
2019-02-23T11:32:54.128Z,14.90
2019-02-23T11:33:54.106Z,11.50
2019-02-23T11:34:54.105Z,18.80
2019-02-23T11:35:54.094Z,15.30
2019-02-23T11:36:54.086Z,13.90
2019-02-23T11:37:54.076Z,12.10
2019-02-23T11:38:54.066Z,10.70
2019-02-23T11:39:54.059Z,8.60
2019-02-23T11:40:54.055Z,13.30
2019-02-23T11:41:54.257Z,11.20
2019-02-23T11:42:54.033Z,12.80
2019-02-23T11:43:54.027Z,11.80
2019-02-23T11:44:54.017Z,12.40
2019-02-23T11:45:54.005Z,10.00
2019-02-23T11:47:00.617Z,12.40
2019-02-23T11:47:53.999Z,8.40
2019-02-23T11:48:53.978Z,9.60
2019-02-23T11:49:53.973Z,9.90
2019-02-23T11:50:53.963Z,8.30
2019-02-23T11:51:53.963Z,10.50
2019-02-23T11:52:53.947Z,8.30
2019-02-23T11:53:55.256Z,9.10
2019-02-23T11:54:53.931Z,9.50
2019-02-23T11:55:53.919Z,8.60
2019-02-23T11:56:53.913Z,11.30
2019-02-23T11:57:53.903Z,8.10
2019-02-23T11:58:53.900Z,10.40
2019-02-23T11:59:53.885Z,10.40
2019-02-23T12:00:53.881Z,11.00
2019-02-23T12:01:53.893Z,9.30
2019-02-23T12:02:53.867Z,10.30
2019-02-23T12:03:53.853Z,12.10
2019-02-23T12:04:53.843Z,9.90
2019-02-23T12:05:53.834Z,11.40
2019-02-23T12:06:53.828Z,9.80
2019-02-23T12:07:53.820Z,8.00
2019-02-23T12:08:53.813Z,9.10
2019-02-23T12:09:53.805Z,7.80
2019-02-23T12:10:53.799Z,8.80
2019-02-23T12:11:53.788Z,10.00
2019-02-23T12:12:54.644Z,9.30
2019-02-23T12:13:53.772Z,8.90
2019-02-23T12:14:53.762Z,8.80
2019-02-23T12:15:53.754Z,7.50
2019-02-23T12:16:53.746Z,8.40
2019-02-23T12:17:53.741Z,10.10
2019-02-23T12:18:53.731Z,7.30
2019-02-23T12:19:55.402Z,6.10
2019-02-23T12:20:53.710Z,8.90
2019-02-23T12:21:53.724Z,8.70
2019-02-23T12:22:53.698Z,8.10
2019-02-23T12:23:53.688Z,8.40
2019-02-23T12:24:53.687Z,10.20
2019-02-23T12:25:53.671Z,7.30
2019-02-23T12:26:55.232Z,8.20
2019-02-23T12:27:53.661Z,5.80
2019-02-23T12:28:53.648Z,10.00
2019-02-23T12:29:53.641Z,19.50
2019-02-23T12:30:53.633Z,9.00
2019-02-23T12:31:53.625Z,6.10
2019-02-23T12:32:53.618Z,8.30
2019-02-23T12:33:53.605Z,10.60
2019-02-23T12:34:53.604Z,5.10
2019-02-23T12:35:53.602Z,6.80
2019-02-23T12:36:53.595Z,7.40
2019-02-23T12:37:53.587Z,7.50
2019-02-23T12:38:53.594Z,6.40
2019-02-23T12:39:53.565Z,5.80
2019-02-23T12:40:54.264Z,5.90
2019-02-23T12:41:53.551Z,6.20
2019-02-23T12:42:53.537Z,5.10
2019-02-23T12:43:53.526Z,6.90
2019-02-23T12:44:53.523Z,6.10
2019-02-23T12:45:53.521Z,4.60
2019-02-23T12:46:53.522Z,5.90
2019-02-23T12:47:53.504Z,6.60
2019-02-23T12:48:53.497Z,5.20
2019-02-23T12:49:53.487Z,4.90
2019-02-23T12:50:53.487Z,5.20
2019-02-23T12:51:53.478Z,6.80
2019-02-23T12:52:53.471Z,7.00
2019-02-23T12:53:53.455Z,4.80